createdAt,value
2023-05-17T00:01:50.945Z,11.10
2023-05-17T00:05:32.950Z,11.10
2023-05-17T00:09:14.993Z,11.00
2023-05-17T00:12:56.990Z,10.90
2023-05-17T00:16:39.612Z,10.80
2023-05-17T00:20:21.981Z,10.80
2023-05-17T00:24:04.336Z,10.70
2023-05-17T00:27:46.440Z,10.70
2023-05-17T00:31:28.476Z,10.60
2023-05-17T00:35:10.483Z,10.60
2023-05-17T00:38:52.468Z,10.50
2023-05-17T00:42:34.461Z,10.50
2023-05-17T00:46:16.598Z,10.40
2023-05-17T00:49:58.764Z,10.30
2023-05-17T00:53:40.881Z,10.30
2023-05-17T00:57:22.956Z,10.30
2023-05-17T01:01:05.048Z,10.20
2023-05-17T01:04:49.141Z,10.20
2023-05-17T01:08:31.454Z,10.10
2023-05-17T01:12:54.621Z,10.00
2023-05-17T01:17:25.713Z,10.00
2023-05-17T01:21:44.804Z,9.90
2023-05-17T01:25:52.209Z,9.80
2023-05-17T01:29:38.552Z,9.70
2023-05-17T01:33:21.401Z,9.60
2023-05-17T01:37:03.533Z,9.50
2023-05-17T01:41:23.100Z,9.50
2023-05-17T01:45:08.240Z,9.40
2023-05-17T01:48:57.181Z,9.30
2023-05-17T01:52:51.528Z,9.30
2023-05-17T01:56:36.907Z,9.20
2023-05-17T02:00:19.941Z,9.10
2023-05-17T02:04:02.033Z,9.10
2023-05-17T02:07:44.041Z,9.00
2023-05-17T02:11:26.004Z,8.90
2023-05-17T02:15:11.323Z,8.90
2023-05-17T02:18:53.429Z,8.80
2023-05-17T02:22:35.947Z,8.70
2023-05-17T02:26:17.944Z,8.70
2023-05-17T02:30:00.267Z,8.60
2023-05-17T02:33:42.438Z,8.60
2023-05-17T02:37:24.663Z,8.60
2023-05-17T02:41:06.693Z,8.50
2023-05-17T02:44:52.958Z,8.40
2023-05-17T02:48:35.115Z,8.30
2023-05-17T02:52:17.086Z,8.30
2023-05-17T02:55:59.081Z,8.20
2023-05-17T02:59:41.068Z,8.20
2023-05-17T03:03:23.169Z,8.10
2023-05-17T03:07:07.122Z,8.10
2023-05-17T03:10:49.365Z,8.00
2023-05-17T03:14:31.369Z,7.90
2023-05-17T03:18:13.417Z,7.90
2023-05-17T03:21:55.452Z,7.90
2023-05-17T03:25:37.508Z,7.80
2023-05-17T03:29:19.483Z,7.70
2023-05-17T03:33:01.635Z,7.70
2023-05-17T03:36:43.783Z,7.70
2023-05-17T03:40:26.135Z,7.60
2023-05-17T03:44:08.151Z,7.50
2023-05-17T03:47:50.237Z,7.50
2023-05-17T03:51:32.236Z,7.40
2023-05-17T03:55:14.271Z,7.30
2023-05-17T03:58:56.255Z,7.30
2023-05-17T04:02:38.815Z,7.20
2023-05-17T04:06:20.859Z,7.20
2023-05-17T04:10:03.397Z,7.10
2023-05-17T04:13:45.419Z,7.10
2023-05-17T04:17:27.858Z,7.00
2023-05-17T04:21:09.983Z,7.00
2023-05-17T04:24:51.962Z,7.00
2023-05-17T04:28:35.358Z,6.90
2023-05-17T04:32:18.911Z,6.90
2023-05-17T04:36:01.104Z,6.90
2023-05-17T04:39:43.128Z,6.90
2023-05-17T04:43:25.164Z,6.80
2023-05-17T04:47:07.198Z,6.80
2023-05-17T04:50:49.388Z,6.80
2023-05-17T04:54:31.360Z,6.80
2023-05-17T04:58:13.322Z,6.80
2023-05-17T05:01:56.345Z,6.80
2023-05-17T05:05:38.299Z,6.90
2023-05-17T05:09:20.497Z,7.00
2023-05-17T05:13:02.542Z,7.10
2023-05-17T05:16:44.608Z,7.10
2023-05-17T05:20:27.919Z,7.20
2023-05-17T05:24:10.240Z,7.30
2023-05-17T05:27:52.274Z,7.50
2023-05-17T05:31:34.262Z,7.60
2023-05-17T05:35:16.843Z,7.70
2023-05-17T05:38:58.833Z,7.90
2023-05-17T05:42:40.809Z,8.10
2023-05-17T05:46:22.819Z,8.30
2023-05-17T05:50:06.636Z,8.60
2023-05-17T05:53:48.799Z,8.80
2023-05-17T05:57:30.869Z,9.10
2023-05-17T06:01:12.911Z,9.40
2023-05-17T06:04:54.928Z,9.60
2023-05-17T06:08:36.970Z,9.90
2023-05-17T06:12:18.998Z,10.10
2023-05-17T06:16:01.015Z,10.40
2023-05-17T06:19:43.068Z,10.50
2023-05-17T06:23:25.738Z,10.70
2023-05-17T06:27:07.762Z,10.90
2023-05-17T06:30:49.758Z,11.10
2023-05-17T06:34:31.731Z,11.10
2023-05-17T06:38:13.708Z,11.30
2023-05-17T06:41:55.968Z,11.50
2023-05-17T06:45:37.986Z,11.90
2023-05-17T06:49:20.075Z,12.20
2023-05-17T06:53:02.716Z,12.50
2023-05-17T06:56:44.691Z,12.80
2023-05-17T07:00:27.595Z,13.20
2023-05-17T07:04:09.893Z,13.60
2023-05-17T07:07:52.283Z,14.00
2023-05-17T07:11:34.368Z,14.40
2023-05-17T07:15:16.452Z,14.70
2023-05-17T07:18:58.504Z,14.80
2023-05-17T07:22:40.736Z,15.00
2023-05-17T07:26:22.792Z,15.20
2023-05-17T07:30:05.408Z,15.30
2023-05-17T07:33:47.396Z,15.50
2023-05-17T07:37:29.428Z,15.70
2023-05-17T07:41:13.433Z,15.90
2023-05-17T07:44:55.468Z,16.20
2023-05-17T07:48:37.531Z,16.40
2023-05-17T07:52:19.613Z,16.60
2023-05-17T07:56:01.594Z,16.80
2023-05-17T07:59:43.609Z,17.00
2023-05-17T08:03:25.606Z,17.20
2023-05-17T08:07:07.747Z,17.30
2023-05-17T08:10:49.939Z,17.40
2023-05-17T08:14:32.932Z,17.30
2023-05-17T08:18:15.096Z,17.30
2023-05-17T08:21:57.170Z,17.40
2023-05-17T08:25:39.232Z,17.60
2023-05-17T08:29:21.228Z,17.70
2023-05-17T08:33:03.322Z,17.90
2023-05-17T08:36:45.911Z,17.90
2023-05-17T08:40:31.251Z,18.10
2023-05-17T08:44:16.761Z,18.30
2023-05-17T08:48:01.662Z,18.40
2023-05-17T08:51:46.400Z,18.50
2023-05-17T08:55:31.512Z,18.40
2023-05-17T08:59:13.859Z,18.50
2023-05-17T09:02:55.911Z,18.50
2023-05-17T09:06:38.400Z,18.60
2023-05-17T09:10:21.177Z,18.60
2023-05-17T09:14:05.000Z,18.70
2023-05-17T09:17:54.570Z,18.70
2023-05-17T09:21:37.208Z,18.70
2023-05-17T09:25:24.687Z,18.50
2023-05-17T09:29:10.960Z,18.30
2023-05-17T09:32:54.371Z,18.20
2023-05-17T09:36:38.206Z,18.20
2023-05-17T09:40:26.503Z,18.30
2023-05-17T09:44:12.368Z,18.60
2023-05-17T09:47:54.452Z,18.80
2023-05-17T09:51:42.432Z,19.00
2023-05-17T09:55:28.037Z,19.30
2023-05-17T09:59:16.762Z,19.70
2023-05-17T10:03:00.184Z,20.10
2023-05-17T10:06:49.727Z,20.40
2023-05-17T10:10:33.599Z,20.80
2023-05-17T10:14:22.752Z,21.20
2023-05-17T10:18:08.216Z,21.20
2023-05-17T10:21:54.022Z,21.20
2023-05-17T10:25:36.766Z,21.70
2023-05-17T10:29:21.357Z,22.10
2023-05-17T10:33:04.756Z,22.40
2023-05-17T10:36:49.010Z,22.30
2023-05-17T10:40:31.745Z,22.10
2023-05-17T10:44:16.203Z,22.00
2023-05-17T10:48:01.439Z,21.90
2023-05-17T10:51:45.807Z,22.20
2023-05-17T10:55:41.392Z,23.10
2023-05-17T10:59:24.323Z,24.30
2023-05-17T11:03:34.658Z,24.70
2023-05-17T11:07:24.040Z,25.70
2023-05-17T11:11:12.756Z,26.10
2023-05-17T11:14:56.268Z,26.50
2023-05-17T11:18:47.296Z,26.30
2023-05-17T11:22:39.569Z,25.70
2023-05-17T11:26:30.782Z,26.10
2023-05-17T11:30:29.090Z,27.00
2023-05-17T11:34:12.308Z,27.40
2023-05-17T11:38:11.889Z,27.30
2023-05-17T11:41:57.591Z,27.10
2023-05-17T11:46:01.912Z,27.00
2023-05-17T11:49:47.367Z,26.80
2023-05-17T11:53:31.851Z,26.30
2023-05-17T11:57:16.906Z,26.10
2023-05-17T12:00:59.209Z,26.00
2023-05-17T12:04:41.427Z,26.10
2023-05-17T12:08:23.558Z,26.40
2023-05-17T12:12:06.366Z,27.00
2023-05-17T12:15:56.397Z,27.20
2023-05-17T12:19:38.751Z,26.80
2023-05-17T12:23:28.321Z,26.30
2023-05-17T12:27:11.139Z,26.00
2023-05-17T12:30:55.336Z,25.70
2023-05-17T12:34:37.644Z,25.20
2023-05-17T12:38:20.442Z,24.60
2023-05-17T12:42:02.647Z,24.00
2023-05-17T12:45:44.711Z,23.60
2023-05-17T12:49:26.948Z,23.60
2023-05-17T12:53:09.301Z,23.80
2023-05-17T12:56:51.668Z,23.70
2023-05-17T13:00:33.735Z,23.50
2023-05-17T13:04:18.358Z,23.80
2023-05-17T13:08:19.859Z,23.90
2023-05-17T13:12:07.388Z,24.70
2023-05-17T13:15:50.543Z,25.50
2023-05-17T13:19:32.726Z,25.90
2023-05-17T13:23:16.306Z,26.10
2023-05-17T13:26:58.333Z,26.30
2023-05-17T13:30:40.477Z,26.50
2023-05-17T13:34:22.428Z,26.20
2023-05-17T13:38:04.387Z,25.90
2023-05-17T13:41:46.509Z,25.50
2023-05-17T13:45:28.701Z,24.90
2023-05-17T13:49:10.825Z,24.40
2023-05-17T13:52:52.938Z,24.40
2023-05-17T13:56:35.006Z,24.90
2023-05-17T14:00:17.189Z,25.60
2023-05-17T14:04:00.835Z,25.50
2023-05-17T14:07:44.029Z,25.00
2023-05-17T14:11:26.429Z,24.50
2023-05-17T14:15:10.762Z,24.10
2023-05-17T14:18:53.108Z,23.90
2023-05-17T14:22:35.250Z,24.20
2023-05-17T14:26:17.232Z,24.90
2023-05-17T14:30:00.291Z,25.20
2023-05-17T14:33:42.317Z,25.10
2023-05-17T14:37:24.381Z,24.60
2023-05-17T14:41:06.897Z,24.00
2023-05-17T14:44:48.915Z,23.50
2023-05-17T14:48:31.310Z,23.10
2023-05-17T14:52:13.420Z,22.80
2023-05-17T14:55:57.295Z,22.60
2023-05-17T14:59:39.430Z,22.40
2023-05-17T15:03:22.417Z,22.20
2023-05-17T15:07:04.732Z,22.10
2023-05-17T15:10:46.710Z,21.90
2023-05-17T15:14:28.685Z,21.80
2023-05-17T15:18:11.408Z,21.80
2023-05-17T15:21:53.443Z,21.90
2023-05-17T15:25:35.844Z,22.00
2023-05-17T15:29:17.794Z,22.20
2023-05-17T15:33:00.176Z,22.40
2023-05-17T15:36:42.400Z,22.60
2023-05-17T15:40:25.113Z,22.80
2023-05-17T15:44:09.040Z,23.20
2023-05-17T15:47:51.028Z,23.60
2023-05-17T15:51:33.123Z,23.80
2023-05-17T15:55:15.337Z,23.80
2023-05-17T15:58:57.409Z,23.70
2023-05-17T16:02:39.409Z,23.50
2023-05-17T16:06:22.192Z,23.20
2023-05-17T16:10:04.495Z,22.90
2023-05-17T16:13:46.469Z,22.50
2023-05-17T16:17:28.570Z,22.20
2023-05-17T16:21:10.645Z,21.90
2023-05-17T16:24:55.879Z,21.70
2023-05-17T16:28:37.921Z,21.50
2023-05-17T16:32:19.909Z,21.40
2023-05-17T16:36:04.147Z,21.30
2023-05-17T16:39:46.715Z,21.20
2023-05-17T16:43:29.004Z,21.10
2023-05-17T16:47:11.026Z,21.00
2023-05-17T16:50:53.059Z,21.00
2023-05-17T16:54:36.243Z,21.10
2023-05-17T16:58:18.303Z,21.10
2023-05-17T17:02:00.484Z,21.10
2023-05-17T17:05:42.578Z,20.90
2023-05-17T17:09:24.722Z,20.90
2023-05-17T17:13:06.698Z,20.80
2023-05-17T17:16:48.684Z,20.70
2023-05-17T17:20:31.333Z,20.70
2023-05-17T17:24:13.725Z,20.60
2023-05-17T17:27:55.898Z,20.60
2023-05-17T17:31:37.959Z,20.50
2023-05-17T17:35:20.003Z,20.50
2023-05-17T17:39:02.025Z,20.40
2023-05-17T17:42:44.031Z,20.30
2023-05-17T17:46:26.037Z,20.20
2023-05-17T17:50:08.674Z,20.10
2023-05-17T17:53:52.251Z,20.00
2023-05-17T17:57:34.275Z,19.80
2023-05-17T18:01:16.244Z,19.70
2023-05-17T18:04:58.471Z,19.60
2023-05-17T18:08:40.610Z,19.50
2023-05-17T18:12:23.064Z,19.40
2023-05-17T18:16:05.688Z,19.30
2023-05-17T18:19:48.667Z,19.20
2023-05-17T18:23:30.987Z,19.00
2023-05-17T18:27:14.262Z,18.80
2023-05-17T18:30:58.599Z,18.60
2023-05-17T18:34:40.674Z,18.40
2023-05-17T18:38:22.645Z,18.20
2023-05-17T18:42:05.049Z,18.10
2023-05-17T18:45:47.036Z,17.90
2023-05-17T18:49:29.021Z,17.90
2023-05-17T18:53:13.119Z,17.80
2023-05-17T18:56:55.148Z,17.70
2023-05-17T19:00:37.137Z,17.60
2023-05-17T19:04:20.256Z,17.50
2023-05-17T19:08:02.297Z,17.40
2023-05-17T19:11:44.317Z,17.30
2023-05-17T19:15:26.387Z,17.20
2023-05-17T19:19:09.018Z,17.10
2023-05-17T19:22:51.242Z,17.00
2023-05-17T19:26:33.260Z,16.90
2023-05-17T19:30:18.471Z,16.80
2023-05-17T19:34:01.786Z,16.70
2023-05-17T19:37:43.885Z,16.60
2023-05-17T19:41:26.710Z,16.50
2023-05-17T19:45:11.092Z,16.40
2023-05-17T19:48:53.160Z,16.20
2023-05-17T19:52:35.967Z,16.10
2023-05-17T19:56:17.992Z,15.90
2023-05-17T20:00:00.013Z,15.70
2023-05-17T20:03:42.180Z,15.60
2023-05-17T20:07:26.042Z,15.40
2023-05-17T20:11:08.226Z,15.30
2023-05-17T20:14:50.193Z,15.20
2023-05-17T20:18:33.228Z,15.10
2023-05-17T20:22:15.503Z,15.00
2023-05-17T20:25:57.870Z,14.90
2023-05-17T20:29:40.684Z,14.80
2023-05-17T20:33:26.631Z,14.70
2023-05-17T20:37:08.697Z,14.60
2023-05-17T20:40:52.103Z,14.60
2023-05-17T20:44:34.207Z,14.50
2023-05-17T20:48:16.327Z,14.40
2023-05-17T20:52:05.708Z,14.30
2023-05-17T20:55:47.730Z,14.30
2023-05-17T20:59:30.109Z,14.20
2023-05-17T21:03:14.097Z,14.20
2023-05-17T21:06:58.236Z,14.20
2023-05-17T21:10:42.808Z,14.10
2023-05-17T21:14:24.805Z,14.10
2023-05-17T21:18:08.823Z,14.00
2023-05-17T21:21:51.023Z,14.00
2023-05-17T21:25:34.130Z,14.00
2023-05-17T21:29:16.104Z,14.00
2023-05-17T21:32:58.192Z,14.00
2023-05-17T21:36:40.210Z,14.00
2023-05-17T21:40:22.358Z,14.00
2023-05-17T21:44:04.382Z,13.90
2023-05-17T21:47:46.533Z,13.90
2023-05-17T21:51:28.561Z,13.90
2023-05-17T21:55:10.839Z,13.80
2023-05-17T21:58:53.204Z,13.80
2023-05-17T22:02:37.040Z,13.70
2023-05-17T22:06:20.590Z,13.70
2023-05-17T22:10:03.309Z,13.70
2023-05-17T22:13:45.275Z,13.60
2023-05-17T22:17:39.357Z,13.60
2023-05-17T22:21:31.714Z,13.60
2023-05-17T22:25:15.083Z,13.50
2023-05-17T22:28:57.979Z,13.50
2023-05-17T22:32:40.373Z,13.50
2023-05-17T22:36:24.964Z,13.40
2023-05-17T22:40:08.199Z,13.40
2023-05-17T22:43:50.176Z,13.40
2023-05-17T22:47:32.282Z,13.40
2023-05-17T22:51:14.371Z,13.30
2023-05-17T22:54:56.428Z,13.30
2023-05-17T22:58:38.364Z,13.30
2023-05-17T23:02:20.375Z,13.30
2023-05-17T23:06:03.082Z,13.20
2023-05-17T23:09:45.263Z,13.20
2023-05-17T23:13:27.596Z,13.20
2023-05-17T23:17:10.028Z,13.20
2023-05-17T23:20:52.000Z,13.20
2023-05-17T23:24:38.698Z,13.10
2023-05-17T23:28:20.932Z,13.20
2023-05-17T23:32:03.019Z,13.10
2023-05-17T23:35:45.140Z,13.10
2023-05-17T23:39:27.142Z,13.10
2023-05-17T23:43:10.152Z,13.00
2023-05-17T23:46:53.942Z,13.00
2023-05-17T23:50:36.672Z,12.90
2023-05-17T23:54:18.894Z,12.90
2023-05-17T23:58:00.867Z,12.80
